Killadysert, Ireland
Current Conditions -  °F | °C
As of 2:30 PM on Thursday 18 Dec 2014 (Local Time) from EINN Reporting Station
Light Rain Light Rain  
Wind Chill: 54°   Ceiling: 700
Heat Index: 54°   Visibility: 3mi
Dew Point: 54°   Wind: 28mph
Humidity: 100%   Direction: 240°WSW
Pressure: 29.62"   Gusts: NA
Location:  52.67°N, 9.11°W
Report Text: EINN 181430Z 24024KT 5000 -RADZ FEW005 BKN007 BKN011 12/12 Q1003 TEMPO 4000 BKN005
Loading
Personal Weather Stations






























Interactive Weather Map New forecast layout! Learn more

10-Day Weather Forecast

Advertisements
Track Severe Weather on mobile